Time;durP1;ratioP1;P1;durP2;ratioP2;P2;SDS_P1;SDS_P2;PMS_P1;PMS_P2;Temp;Humidity;BMP_temperature;BMP_pressure;BME280_temperature;BME280_humidity;BME280_pressure;Samples;Min_cycle;Max_cycle;Signal;HPM_P1;HPM_P2
2022/05/07 00:02:06;;;;;;;13.40;10.25;;;10.30;99.90;;;;;;4994409;28;20046;-84
2022/05/07 00:04:33;;;;;;;15.45;10.35;;;10.30;99.90;;;;;;4994313;28;20026;-84
2022/05/07 00:06:59;;;;;;;22.58;10.98;;;10.20;99.90;;;;;;4993956;28;20026;-84
2022/05/07 00:09:25;;;;;;;14.13;10.25;;;10.10;99.90;;;;;;5009849;28;20023;-84
2022/05/07 00:11:51;;;;;;;15.93;10.98;;;10.00;99.90;;;;;;4994990;28;20092;-84
2022/05/07 00:14:16;;;;;;;16.50;10.43;;;9.90;99.90;;;;;;4993826;28;20173;-84
2022/05/07 00:19:26;;;;;;;18.58;11.35;;;9.90;99.90;;;;;;4973863;28;20046;-84
2022/05/07 00:21:52;;;;;;;16.45;10.48;;;9.80;99.90;;;;;;4976294;28;20470;-84
2022/05/07 00:24:18;;;;;;;15.38;10.32;;;9.70;99.90;;;;;;4994532;28;20029;-84
2022/05/07 00:26:45;;;;;;;17.77;10.80;;;9.70;99.90;;;;;;4994899;28;20533;-84
2022/05/07 00:29:10;;;;;;;16.23;11.15;;;9.70;99.90;;;;;;4993596;28;20501;-84
2022/05/07 00:31:36;;;;;;;17.45;11.57;;;9.70;99.90;;;;;;4960489;28;20042;-84
2022/05/07 00:34:02;;;;;;;18.00;11.38;;;9.70;99.90;;;;;;4976840;28;20397;-84
2022/05/07 00:36:27;;;;;;;18.13;11.55;;;9.70;99.90;;;;;;4993886;28;20030;-84
2022/05/07 00:38:53;;;;;;;20.23;12.57;;;9.70;99.90;;;;;;5008925;28;20027;-84
2022/05/07 00:41:19;;;;;;;17.20;11.38;;;9.70;99.90;;;;;;4994216;28;20109;-84
2022/05/07 00:43:44;;;;;;;17.33;11.15;;;9.80;99.90;;;;;;4994451;28;20544;-84
2022/05/07 00:46:12;;;;;;;16.00;11.25;;;9.70;99.90;;;;;;4994352;28;20078;-84
2022/05/07 00:48:38;;;;;;;17.15;11.48;;;9.70;99.90;;;;;;5000616;28;20022;-84
2022/05/07 00:53:50;;;;;;;15.82;11.52;;;9.60;99.90;;;;;;5002247;28;20038;-84
2022/05/07 00:56:16;;;;;;;17.20;11.60;;;9.60;99.90;;;;;;4995443;28;20509;-84
2022/05/07 00:58:42;;;;;;;15.00;10.65;;;9.60;99.90;;;;;;4994186;28;20065;-84
2022/05/07 01:01:08;;;;;;;19.55;11.68;;;9.50;99.90;;;;;;5008796;28;20054;-84
2022/05/07 01:03:35;;;;;;;17.88;12.38;;;9.60;99.90;;;;;;5008828;28;20474;-84
2022/05/07 01:06:01;;;;;;;18.25;12.70;;;9.60;99.90;;;;;;4994433;28;20026;-84
2022/05/07 01:08:29;;;;;;;16.70;11.02;;;9.60;99.90;;;;;;4993679;28;20036;-84
2022/05/07 01:10:56;;;;;;;17.58;12.10;;;9.60;99.90;;;;;;5008342;28;20053;-84
2022/05/07 01:13:22;;;;;;;20.42;12.40;;;9.70;99.90;;;;;;4994000;28;20034;-84
2022/05/07 01:15:53;;;;;;;20.48;11.85;;;9.70;99.90;;;;;;4976526;28;20037;-84
2022/05/07 01:18:19;;;;;;;17.42;11.15;;;9.70;99.90;;;;;;4994156;28;20109;-84
2022/05/07 01:20:45;;;;;;;17.95;11.25;;;9.60;99.90;;;;;;5008707;28;20081;-84
2022/05/07 01:23:11;;;;;;;14.45;11.57;;;9.60;99.90;;;;;;4993693;28;20066;-84
2022/05/07 01:25:37;;;;;;;17.63;12.32;;;9.70;99.90;;;;;;4992821;28;20030;-84
2022/05/07 01:28:04;;;;;;;18.77;12.40;;;9.70;99.90;;;;;;4992603;28;20500;-84
2022/05/07 01:30:29;;;;;;;18.92;11.98;;;9.70;99.90;;;;;;4993098;28;20430;-84
2022/05/07 01:32:55;;;;;;;18.90;11.70;;;9.70;99.90;;;;;;4975694;28;20031;-84
2022/05/07 01:35:20;;;;;;;16.63;10.93;;;9.70;99.90;;;;;;4994057;28;20033;-84
2022/05/07 01:37:46;;;;;;;17.65;12.38;;;9.80;99.90;;;;;;5010923;28;20105;-84
2022/05/07 01:40:12;;;;;;;17.58;12.57;;;9.80;99.90;;;;;;4997743;28;20050;-84
2022/05/07 01:42:39;;;;;;;17.10;11.32;;;9.80;99.90;;;;;;4996924;28;20427;-84
2022/05/07 01:45:05;;;;;;;24.73;11.85;;;9.70;99.90;;;;;;4992853;28;20078;-84
2022/05/07 01:50:15;;;;;;;18.40;13.25;;;9.60;99.90;;;;;;5002970;28;20037;-84
2022/05/07 01:52:41;;;;;;;17.05;11.48;;;9.60;99.90;;;;;;4994004;28;20058;-84
2022/05/07 01:55:07;;;;;;;17.35;12.50;;;9.50;99.90;;;;;;4998856;28;20485;-84
2022/05/07 01:57:32;;;;;;;21.45;13.13;;;9.50;99.90;;;;;;4989347;28;20041;-84
2022/05/07 01:59:58;;;;;;;16.85;12.25;;;9.40;99.90;;;;;;4972812;28;20121;-84
2022/05/07 02:02:23;;;;;;;18.52;11.57;;;9.40;99.90;;;;;;4988587;28;20105;-84
2022/05/07 02:04:49;;;;;;;17.48;13.52;;;9.40;99.90;;;;;;4974369;28;20042;-84
2022/05/07 02:07:15;;;;;;;21.08;13.07;;;9.50;99.90;;;;;;4989010;28;20030;-84
2022/05/07 02:09:40;;;;;;;21.23;13.80;;;9.50;99.90;;;;;;4987311;28;20050;-84
2022/05/07 02:12:06;;;;;;;17.20;12.73;;;9.50;99.90;;;;;;5008169;28;20026;-84
2022/05/07 02:14:32;;;;;;;18.48;12.02;;;9.50;99.90;;;;;;4992758;28;20038;-84
2022/05/07 02:16:58;;;;;;;19.67;12.88;;;9.50;99.90;;;;;;4975408;28;20035;-84
2022/05/07 02:19:24;;;;;;;17.38;12.38;;;9.50;99.90;;;;;;4975004;28;20034;-83
2022/05/07 02:21:49;;;;;;;21.63;12.82;;;9.50;99.90;;;;;;4993424;28;20567;-83
2022/05/07 02:24:15;;;;;;;31.65;13.68;;;9.40;99.90;;;;;;4975903;28;20369;-84
2022/05/07 02:26:42;;;;;;;31.45;12.80;;;9.30;99.90;;;;;;4976395;28;20521;-84
2022/05/07 02:29:09;;;;;;;22.88;13.05;;;9.20;99.90;;;;;;4976818;28;20026;-84
2022/05/07 02:31:35;;;;;;;17.63;13.07;;;9.10;99.90;;;;;;4992972;28;20034;-84
2022/05/07 02:34:01;;;;;;;19.52;12.25;;;9.10;99.90;;;;;;4975623;28;20034;-84
2022/05/07 02:36:27;;;;;;;19.88;13.43;;;9.00;99.90;;;;;;4959118;28;20503;-84
2022/05/07 02:38:52;;;;;;;21.85;11.90;;;9.00;99.90;;;;;;4990539;28;20390;-84
2022/05/07 02:44:04;;;;;;;19.08;11.63;;;9.00;99.90;;;;;;4977936;28;20080;-84
2022/05/07 02:46:29;;;;;;;17.30;11.15;;;9.00;99.90;;;;;;4975060;28;20046;-84
2022/05/07 02:48:55;;;;;;;18.10;11.80;;;8.90;99.90;;;;;;4990955;28;20474;-84
2022/05/07 02:51:21;;;;;;;19.70;12.13;;;9.00;99.90;;;;;;4990747;28;20030;-84
2022/05/07 02:53:47;;;;;;;16.75;11.68;;;8.80;99.90;;;;;;4987093;28;20031;-84
2022/05/07 02:56:12;;;;;;;17.65;10.82;;;8.80;99.90;;;;;;4990242;28;20031;-84
2022/05/07 02:58:38;;;;;;;17.27;11.68;;;8.90;99.90;;;;;;4991001;28;20041;-84
2022/05/07 03:01:04;;;;;;;19.60;12.68;;;8.70;99.90;;;;;;4987289;28;20447;-84
2022/05/07 03:03:29;;;;;;;19.55;13.20;;;8.70;99.90;;;;;;4973065;28;20077;-84
2022/05/07 03:05:56;;;;;;;17.98;11.10;;;8.70;99.90;;;;;;4973591;28;20390;-84
2022/05/07 03:08:23;;;;;;;17.70;11.55;;;8.70;99.90;;;;;;4971312;28;20027;-84
2022/05/07 03:10:49;;;;;;;18.88;11.85;;;8.70;99.90;;;;;;4971275;28;20027;-84
2022/05/07 03:13:15;;;;;;;21.15;11.82;;;8.70;99.90;;;;;;4970876;28;20105;-84
2022/05/07 03:15:41;;;;;;;19.30;12.95;;;8.70;99.90;;;;;;4970548;28;20046;-84
2022/05/07 03:18:06;;;;;;;16.98;11.25;;;8.70;99.90;;;;;;4983760;28;20043;-84
2022/05/07 03:20:32;;;;;;;19.85;12.73;;;8.80;99.90;;;;;;4991721;28;20102;-84
2022/05/07 03:22:58;;;;;;;17.65;11.88;;;8.80;99.90;;;;;;4970744;28;20035;-84
2022/05/07 03:25:24;;;;;;;17.90;10.80;;;8.90;99.90;;;;;;4991432;28;20073;-84
2022/05/07 03:27:50;;;;;;;15.48;9.98;;;8.90;99.90;;;;;;4994541;28;20034;-84
2022/05/07 03:30:15;;;;;;;16.80;10.93;;;9.00;99.90;;;;;;5010559;28;20468;-84
2022/05/07 03:32:41;;;;;;;15.75;10.57;;;9.00;99.90;;;;;;4977707;28;20085;-85
2022/05/07 03:35:07;;;;;;;15.27;10.38;;;9.00;99.90;;;;;;4995140;28;20077;-84
2022/05/07 03:37:32;;;;;;;13.75;10.50;;;9.10;99.90;;;;;;4995742;28;20045;-84
2022/05/07 03:39:58;;;;;;;24.98;10.95;;;9.10;99.90;;;;;;4994633;28;20121;-84
2022/05/07 03:42:26;;;;;;;18.92;10.88;;;9.00;99.90;;;;;;4994294;28;20034;-84
2022/05/07 03:44:51;;;;;;;16.90;10.23;;;9.10;99.90;;;;;;4994555;28;20030;-84
2022/05/07 03:47:17;;;;;;;16.55;10.30;;;9.20;99.90;;;;;;4977960;28;20026;-84
2022/05/07 03:49:43;;;;;;;15.80;9.55;;;9.30;99.90;;;;;;4994453;28;20030;-84
2022/05/07 03:54:53;;;;;;;15.48;9.30;;;9.30;99.90;;;;;;4995757;28;20045;-84
2022/05/07 03:57:18;;;;;;;12.68;7.97;;;9.40;99.90;;;;;;4994027;28;20034;-84
2022/05/07 03:59:44;;;;;;;15.18;8.82;;;9.40;99.90;;;;;;5010471;28;20027;-84
2022/05/07 04:02:10;;;;;;;13.25;9.05;;;9.50;99.90;;;;;;4994680;28;20039;-84
2022/05/07 04:04:36;;;;;;;13.65;8.13;;;9.50;99.90;;;;;;4994650;28;20084;-84
2022/05/07 04:07:02;;;;;;;13.68;8.68;;;9.40;99.90;;;;;;4994648;28;20094;-84
2022/05/07 04:09:28;;;;;;;13.55;9.32;;;9.50;99.90;;;;;;5010083;28;20109;-84
2022/05/07 04:11:54;;;;;;;14.60;8.85;;;9.50;99.90;;;;;;4994481;28;20122;-85
2022/05/07 04:14:19;;;;;;;12.95;8.40;;;9.50;99.90;;;;;;5001056;28;20042;-84
2022/05/07 04:16:46;;;;;;;11.75;7.68;;;9.50;99.90;;;;;;4995287;28;20030;-84
2022/05/07 04:19:12;;;;;;;10.35;7.85;;;9.50;99.90;;;;;;4995175;28;20499;-84
2022/05/07 04:21:38;;;;;;;11.98;7.80;;;9.50;99.90;;;;;;5009537;28;20109;-84
2022/05/07 04:24:05;;;;;;;11.00;6.75;;;9.50;99.90;;;;;;4993368;28;20034;-84
2022/05/07 04:26:30;;;;;;;12.70;8.60;;;9.40;99.90;;;;;;4993257;28;20410;-84
2022/05/07 04:28:56;;;;;;;11.70;8.13;;;9.50;99.90;;;;;;4994732;28;20061;-84
2022/05/07 04:31:21;;;;;;;14.18;8.35;;;9.60;99.90;;;;;;4992804;28;20066;-84
2022/05/07 04:33:47;;;;;;;11.70;7.90;;;9.70;99.90;;;;;;5009906;28;20027;-84
2022/05/07 04:36:13;;;;;;;11.60;7.00;;;9.60;99.90;;;;;;4993325;28;20035;-84
2022/05/07 04:38:38;;;;;;;11.38;7.80;;;9.70;99.90;;;;;;5008687;28;20030;-84
2022/05/07 04:41:04;;;;;;;13.38;8.00;;;9.70;99.90;;;;;;4977869;28;20031;-84
2022/05/07 04:43:30;;;;;;;13.15;8.07;;;9.80;99.90;;;;;;4974946;28;20031;-84
2022/05/07 04:45:56;;;;;;;10.98;7.80;;;9.90;99.90;;;;;;4994339;28;20050;-84
2022/05/07 04:48:21;;;;;;;10.85;8.02;;;9.90;99.90;;;;;;5013498;28;20042;-84
2022/05/07 04:50:47;;;;;;;11.50;7.38;;;10.00;99.90;;;;;;5000433;28;20054;-84
2022/05/07 04:53:13;;;;;;;12.15;7.82;;;10.00;99.90;;;;;;4999346;28;20088;-84
2022/05/07 04:55:38;;;;;;;10.60;7.55;;;10.00;99.90;;;;;;4999951;28;20046;-84
2022/05/07 04:58:04;;;;;;;12.80;8.25;;;10.00;99.90;;;;;;4997445;28;20041;-84
2022/05/07 05:00:29;;;;;;;12.80;6.95;;;10.10;99.90;;;;;;4993324;28;20089;-84
2022/05/07 05:02:55;;;;;;;14.63;7.22;;;10.10;99.90;;;;;;4993602;28;20058;-84
2022/05/07 05:05:21;;;;;;;13.70;8.15;;;10.10;99.90;;;;;;4993754;28;20105;-84
2022/05/07 05:07:46;;;;;;;13.00;8.35;;;10.10;99.90;;;;;;5009561;28;20065;-84
2022/05/07 05:10:12;;;;;;;10.07;6.88;;;10.30;99.90;;;;;;4977514;28;20507;-84
2022/05/07 05:12:38;;;;;;;11.68;7.63;;;10.40;99.90;;;;;;4993029;28;20080;-84
2022/05/07 05:15:04;;;;;;;12.82;7.40;;;10.40;99.90;;;;;;5009738;28;20038;-84
2022/05/07 05:17:32;;;;;;;10.18;7.35;;;10.60;99.90;;;;;;4992968;28;20053;-84
2022/05/07 05:19:58;;;;;;;10.80;6.90;;;10.60;99.90;;;;;;4994428;28;20512;-84
2022/05/07 05:22:24;;;;;;;9.18;7.00;;;10.70;99.90;;;;;;5008998;28;20126;-84
2022/05/07 05:24:49;;;;;;;12.05;6.88;;;11.10;99.90;;;;;;4994046;28;20105;-84
2022/05/07 05:27:15;;;;;;;10.98;6.57;;;11.20;99.90;;;;;;4992935;28;20470;-84
2022/05/07 05:29:41;;;;;;;10.52;6.80;;;11.40;99.90;;;;;;5009098;28;20252;-84
2022/05/07 05:32:07;;;;;;;10.48;6.88;;;11.50;99.90;;;;;;5008404;28;20146;-84
2022/05/07 05:34:33;;;;;;;8.73;5.75;;;11.70;99.90;;;;;;5008994;28;20479;-84
2022/05/07 05:36:59;;;;;;;13.13;6.93;;;11.90;99.90;;;;;;4993899;28;20112;-84
2022/05/07 05:39:24;;;;;;;10.30;7.20;;;11.70;99.90;;;;;;4993246;28;20500;-84
2022/05/07 05:41:50;;;;;;;9.25;7.32;;;11.50;99.90;;;;;;4993400;28;20092;-84
2022/05/07 05:44:16;;;;;;;9.73;7.13;;;11.50;99.90;;;;;;4993228;28;20027;-84
2022/05/07 05:46:42;;;;;;;11.63;7.43;;;11.70;99.90;;;;;;5008628;28;20149;-84
2022/05/07 05:49:08;;;;;;;11.18;7.30;;;11.90;99.90;;;;;;5012828;28;20157;-84
2022/05/07 05:51:33;;;;;;;10.48;7.38;;;12.00;99.90;;;;;;5001274;28;20038;-84
2022/05/07 05:53:59;;;;;;;14.00;8.43;;;12.10;99.90;;;;;;5001222;28;20485;-84
2022/05/07 05:56:25;;;;;;;10.15;7.63;;;12.30;99.90;;;;;;5013918;28;20088;-84
2022/05/07 05:58:50;;;;;;;12.15;8.13;;;12.40;99.90;;;;;;4991758;28;20154;-84
2022/05/07 06:01:16;;;;;;;12.98;8.43;;;12.40;99.90;;;;;;4992502;28;20034;-84
2022/05/07 06:03:42;;;;;;;13.98;8.00;;;12.10;99.90;;;;;;5007710;28;20544;-84
2022/05/07 06:06:07;;;;;;;10.82;7.78;;;12.20;99.90;;;;;;4992914;28;20105;-84
2022/05/07 06:08:33;;;;;;;12.40;8.02;;;12.30;99.90;;;;;;5008331;28;20324;-84
2022/05/07 06:10:58;;;;;;;10.70;8.48;;;12.30;99.90;;;;;;5008055;28;20034;-84
2022/05/07 06:13:25;;;;;;;11.23;8.38;;;12.40;99.90;;;;;;5008368;28;20125;-84
2022/05/07 06:15:51;;;;;;;11.20;8.43;;;12.40;99.90;;;;;;5007960;28;20049;-84
2022/05/07 06:18:21;;;;;;;11.73;7.70;;;12.30;99.90;;;;;;4991620;28;20473;-84
2022/05/07 06:20:49;;;;;;;12.73;8.25;;;12.40;99.90;;;;;;4992556;28;20030;-84
2022/05/07 06:23:15;;;;;;;17.60;8.13;;;12.30;99.90;;;;;;4994484;28;20157;-84
2022/05/07 06:28:25;;;;;;;13.32;9.52;;;12.30;99.90;;;;;;4994454;28;20049;-84
2022/05/07 06:30:51;;;;;;;11.90;8.40;;;12.20;99.90;;;;;;5008930;28;20462;-84
2022/05/07 06:33:17;;;;;;;12.48;8.50;;;12.20;99.90;;;;;;4995622;28;20462;-84
2022/05/07 06:35:44;;;;;;;15.05;8.65;;;12.40;99.90;;;;;;4992902;28;20081;-84
2022/05/07 06:38:09;;;;;;;14.98;8.55;;;12.50;99.90;;;;;;4994233;28;20019;-84
2022/05/07 06:40:38;;;;;;;14.18;10.02;;;12.30;99.90;;;;;;4992919;28;20492;-84
2022/05/07 06:43:05;;;;;;;14.73;10.23;;;12.20;99.90;;;;;;4994022;28;20050;-84
2022/05/07 06:45:32;;;;;;;15.10;9.63;;;12.50;99.90;;;;;;4993794;28;20046;-84
2022/05/07 06:47:58;;;;;;;15.40;10.65;;;12.50;99.90;;;;;;4993871;28;20026;-84
2022/05/07 06:50:23;;;;;;;17.02;11.15;;;12.30;99.90;;;;;;4993892;28;20081;-85
2022/05/07 06:52:49;;;;;;;14.60;10.55;;;12.30;99.90;;;;;;4993867;28;20041;-85
2022/05/07 06:55:16;;;;;;;13.43;10.05;;;12.40;99.90;;;;;;4994020;28;20041;-85
2022/05/07 06:57:43;;;;;;;14.65;10.52;;;12.50;99.90;;;;;;4976770;28;20026;-84
2022/05/07 07:00:11;;;;;;;18.15;11.07;;;12.40;99.90;;;;;;4993727;28;20030;-84
2022/05/07 07:02:37;;;;;;;18.20;10.85;;;12.50;99.90;;;;;;4991690;28;20050;-85
2022/05/07 07:05:03;;;;;;;17.02;10.93;;;12.40;99.90;;;;;;4993838;28;20035;-85
2022/05/07 07:07:30;;;;;;;14.88;10.65;;;12.50;99.90;;;;;;4992610;28;20080;-85
2022/05/07 07:09:56;;;;;;;15.82;11.95;;;12.50;99.90;;;;;;4993716;28;20026;-84
2022/05/07 07:12:22;;;;;;;14.77;11.13;;;12.60;99.90;;;;;;4976536;28;20405;-84
2022/05/07 07:14:48;;;;;;;16.52;11.40;;;12.80;99.90;;;;;;4992499;28;20035;-84
2022/05/07 07:17:16;;;;;;;17.15;12.13;;;12.70;99.90;;;;;;4992392;28;20141;-84
2022/05/07 07:19:42;;;;;;;21.20;12.15;;;12.80;99.90;;;;;;4994122;28;20046;-84
2022/05/07 07:22:08;;;;;;;16.38;11.75;;;12.90;99.90;;;;;;4993849;28;20552;-85
2022/05/07 07:24:34;;;;;;;15.90;11.23;;;12.90;99.90;;;;;;4993952;28;20030;-85
2022/05/07 07:26:59;;;;;;;16.92;12.00;;;13.10;99.90;;;;;;4976329;28;20489;-85
2022/05/07 07:29:25;;;;;;;19.00;12.15;;;13.10;99.90;;;;;;4993527;28;20046;-85
2022/05/07 07:31:51;;;;;;;18.15;12.77;;;13.10;99.90;;;;;;4991824;28;20031;-85
2022/05/07 07:34:18;;;;;;;15.48;11.32;;;13.30;99.90;;;;;;4976186;28;20037;-85
2022/05/07 07:36:44;;;;;;;18.35;11.32;;;13.50;99.90;;;;;;4993670;28;20444;-85
2022/05/07 07:39:13;;;;;;;17.85;13.15;;;13.40;99.90;;;;;;4992319;28;20031;-85
2022/05/07 07:41:38;;;;;;;17.65;12.05;;;13.30;99.90;;;;;;4976604;28;20031;-85
2022/05/07 07:44:04;;;;;;;16.65;11.18;;;13.40;99.90;;;;;;4992438;28;20077;-85
2022/05/07 07:49:14;;;;;;;28.63;13.48;;;13.50;99.90;;;;;;4994068;28;20042;-85
2022/05/07 07:51:39;;;;;;;17.17;12.43;;;13.60;99.90;;;;;;4976329;28;20026;-84
2022/05/07 07:54:05;;;;;;;18.00;12.00;;;13.90;99.90;;;;;;4993965;28;20045;-84
2022/05/07 07:56:31;;;;;;;18.67;13.20;;;14.30;99.90;;;;;;4976263;28;20046;-85
2022/05/07 07:58:57;;;;;;;17.52;12.43;;;14.50;99.90;;;;;;4993998;28;20030;-85
2022/05/07 08:01:22;;;;;;;17.30;13.32;;;14.50;99.90;;;;;;4997571;28;20034;-84
2022/05/07 08:03:48;;;;;;;15.68;12.05;;;14.90;99.90;;;;;;5000638;28;20041;-85
2022/05/07 08:06:14;;;;;;;15.75;14.05;;;15.10;99.90;;;;;;5016510;28;20030;-85
2022/05/07 08:11:46;;;;;;;19.27;12.52;;;15.50;99.90;;;;;;4998186;28;20084;-85
2022/05/07 08:14:13;;;;;;;16.05;13.38;;;15.30;99.90;;;;;;4996593;28;20054;-85
2022/05/07 08:16:41;;;;;;;23.40;12.18;;;15.90;99.90;;;;;;4996629;28;20502;-85
2022/05/07 08:19:07;;;;;;;16.58;13.38;;;16.40;99.90;;;;;;4997888;28;20022;-85
2022/05/07 08:21:33;;;;;;;22.20;14.15;;;16.50;99.90;;;;;;4996463;28;20085;-85
2022/05/07 08:23:59;;;;;;;19.73;13.20;;;16.50;99.90;;;;;;4996352;28;20031;-85
2022/05/07 08:26:25;;;;;;;20.80;14.48;;;16.40;99.90;;;;;;4997339;28;20046;-84
2022/05/07 08:28:52;;;;;;;18.63;14.77;;;16.60;99.10;;;;;;4980622;28;20065;-85
2022/05/07 08:31:18;;;;;;;20.38;14.68;;;17.00;98.40;;;;;;4995204;28;20478;-84
2022/05/07 08:33:44;;;;;;;17.65;13.13;;;17.10;97.90;;;;;;4995715;28;20030;-84
2022/05/07 08:36:11;;;;;;;17.92;14.55;;;16.90;94.40;;;;;;4995982;28;20031;-85
2022/05/07 08:38:36;;;;;;;19.58;14.18;;;16.80;97.90;;;;;;4997114;28;20038;-85
2022/05/07 08:41:02;;;;;;;18.70;15.32;;;16.80;97.10;;;;;;4979494;28;20031;-85
2022/05/07 08:43:36;;;;;;;19.02;14.10;;;17.00;99.60;;;;;;4995689;28;20041;-85
2022/05/07 08:46:24;;;;;;;21.00;14.38;;;16.90;95.70;;;;;;4995478;28;20406;-85
2022/05/07 08:48:51;;;;;;;19.45;15.20;;;17.10;95.10;;;;;;4996969;28;20026;-84
2022/05/07 08:51:20;;;;;;;20.77;15.07;;;17.70;95.10;;;;;;4995479;28;20019;-85
2022/05/07 08:53:53;;;;;;;17.98;14.95;;;17.40;93.40;;;;;;4995362;28;20030;-85
2022/05/07 08:56:19;;;;;;;19.45;14.70;;;17.50;95.80;;;;;;4996296;28;20652;-85
2022/05/07 08:58:52;;;;;;;18.77;14.57;;;17.50;93.20;;;;;;4994897;28;20121;-85
2022/05/07 09:01:18;;;;;;;18.20;14.95;;;17.90;92.50;;;;;;4995721;28;20038;-85
2022/05/07 09:03:46;;;;;;;20.40;14.95;;;18.10;93.60;;;;;;4994923;28;20038;-84
2022/05/07 09:06:23;;;;;;;20.00;14.70;;;18.00;88.60;;;;;;4978820;28;20029;-85
2022/05/07 09:08:49;;;;;;;19.95;15.02;;;18.40;90.70;;;;;;4996249;28;20019;-84
2022/05/07 09:11:16;;;;;;;17.42;15.40;;;18.40;84.20;;;;;;4978567;28;20446;-85
2022/05/07 09:13:42;;;;;;;18.13;14.85;;;18.40;82.20;;;;;;4995011;28;20105;-85
2022/05/07 09:16:11;;;;;;;18.33;15.35;;;18.60;84.50;;;;;;4996414;28;20077;-85
2022/05/07 09:18:37;;;;;;;19.13;15.43;;;18.30;81.20;;;;;;4994829;28;20392;-85
2022/05/07 09:21:20;;;;;;;20.48;15.43;;;19.00;86.70;;;;;;4994907;28;20109;-85
2022/05/07 09:23:48;;;;;;;17.95;14.65;;;18.70;81.60;;;;;;4995652;28;20026;-85
2022/05/07 09:26:27;;;;;;;19.67;15.65;;;18.40;82.50;;;;;;4995448;28;20018;-84
2022/05/07 09:28:54;;;;;;;19.60;15.82;;;18.90;82.40;;;;;;4994659;28;20501;-85
2022/05/07 09:31:27;;;;;;;19.60;15.52;;;18.70;81.50;;;;;;4977727;28;20117;-84
2022/05/07 09:36:42;;;;;;;25.33;17.38;;;18.30;76.70;;;;;;4996001;28;20085;-84
2022/05/07 09:39:11;;;;;;;21.40;16.90;;;18.10;81.80;;;;;;4978754;28;20036;-84
2022/05/07 09:41:38;;;;;;;18.55;15.75;;;17.60;81.20;;;;;;4995483;28;20037;-84
2022/05/07 09:44:04;;;;;;;16.30;13.98;;;17.70;81.90;;;;;;4994436;28;20042;-85
2022/05/07 09:46:32;;;;;;;17.95;16.02;;;17.80;81.90;;;;;;4994052;28;20050;-85
2022/05/07 09:49:00;;;;;;;19.02;14.73;;;18.00;83.80;;;;;;4993892;28;20022;-85
2022/05/07 09:51:28;;;;;;;16.48;13.30;;;18.40;78.10;;;;;;4995860;28;20054;-84
2022/05/07 09:59:32;;;;;;;16.00;12.40;;;17.80;70.70;;;;;;4995744;28;20089;-84
2022/05/07 10:02:35;;;;;;;15.10;11.65;;;18.00;73.60;;;;;;4977614;28;20042;-84
2022/05/07 10:05:32;;;;;;;21.10;13.10;;;17.70;70.30;;;;;;4993718;28;20030;-84
2022/05/07 10:08:35;;;;;;;21.23;12.80;;;18.40;66.80;;;;;;4994730;28;20033;-84
2022/05/07 10:11:03;;;;;;;18.35;13.18;;;18.30;69.80;;;;;;4994228;28;20221;-84
2022/05/07 10:13:28;;;;;;;16.08;11.25;;;18.30;67.30;;;;;;4993255;28;20481;-84
2022/05/07 10:16:03;;;;;;;15.20;11.88;;;18.40;65.80;;;;;;4994098;28;20050;-85
2022/05/07 10:18:41;;;;;;;22.02;11.52;;;18.60;67.10;;;;;;4960938;28;20120;-84
2022/05/07 10:21:24;;;;;;;14.93;11.93;;;18.80;67.60;;;;;;4994154;28;20054;-85
2022/05/07 10:23:55;;;;;;;15.60;12.38;;;19.20;67.20;;;;;;4994142;28;20493;-85
2022/05/07 10:26:23;;;;;;;12.68;11.38;;;19.30;64.40;;;;;;4976515;28;20045;-85
2022/05/07 10:28:49;;;;;;;14.70;11.82;;;19.10;62.10;;;;;;4993605;28;20478;-84
2022/05/07 10:31:22;;;;;;;14.77;11.50;;;19.40;64.00;;;;;;4993135;28;20042;-84
2022/05/07 10:33:49;;;;;;;14.98;11.60;;;19.20;62.90;;;;;;4994148;28;20033;-85
2022/05/07 10:36:16;;;;;;;13.90;12.02;;;19.50;64.40;;;;;;4994552;28;20034;-84
2022/05/07 10:38:46;;;;;;;16.05;11.60;;;18.90;62.70;;;;;;4994215;28;20084;-84
2022/05/07 10:41:11;;;;;;;;;;;18.80;63.90;;;;;;4977597;28;20041;-85
2022/05/07 10:43:42;;;;;;;13.50;11.25;;;19.40;62.20;;;;;;5008862;28;20284;-84
2022/05/07 10:46:16;;;;;;;13.40;11.45;;;19.40;62.20;;;;;;4993765;28;20047;-86
2022/05/07 10:48:50;;;;;;;15.70;12.77;;;20.00;61.00;;;;;;4999448;28;20027;-84
2022/05/07 10:51:32;;;;;;;15.77;12.52;;;19.50;61.40;;;;;;5000538;28;20029;-84
2022/05/07 10:54:01;;;;;;;12.35;10.80;;;20.10;60.30;;;;;;4999897;28;20026;-84
2022/05/07 10:56:28;;;;;;;14.10;12.45;;;20.90;58.10;;;;;;4993758;28;20038;-84
2022/05/07 10:58:57;;;;;;;13.95;12.00;;;20.10;57.70;;;;;;4992851;28;20035;-85
2022/05/07 11:01:24;;;;;;;13.23;11.85;;;19.70;61.00;;;;;;4992227;28;20390;-84
2022/05/07 11:04:05;;;;;;;15.02;12.25;;;19.60;59.40;;;;;;4993261;28;20054;-84
2022/05/07 11:06:44;;;;;;;13.18;11.88;;;20.60;59.90;;;;;;4991792;28;20026;-84
2022/05/07 11:09:21;;;;;;;13.55;12.15;;;20.10;58.70;;;;;;4993210;28;20072;-84
2022/05/07 11:11:49;;;;;;;13.82;11.32;;;20.70;55.20;;;;;;4991895;28;20023;-85
2022/05/07 11:14:24;;;;;;;13.80;10.95;;;19.80;54.70;;;;;;4993242;28;20089;-84
2022/05/07 11:16:55;;;;;;;15.95;10.30;;;20.70;53.30;;;;;;4975617;28;20222;-84
2022/05/07 11:19:29;;;;;;;17.92;11.63;;;21.70;52.80;;;;;;4992642;28;20034;-85
2022/05/07 11:21:56;;;;;;;15.75;10.93;;;22.30;50.00;;;;;;4991700;28;20049;-85
2022/05/07 11:24:25;;;;;;;12.45;11.05;;;22.40;50.50;;;;;;4991780;28;20026;-84
2022/05/07 11:27:05;;;;;;;15.20;11.02;;;23.40;48.20;;;;;;4993221;28;20026;-84
2022/05/07 11:29:35;;;;;;;14.13;11.93;;;22.40;48.40;;;;;;4993909;28;20023;-85
2022/05/07 11:32:06;;;;;;;16.47;11.50;;;21.80;53.30;;;;;;4993583;28;20035;-84
2022/05/07 11:34:40;;;;;;;13.00;11.55;;;22.80;48.60;;;;;;4996826;28;20033;-84
2022/05/07 11:37:15;;;;;;;13.52;11.40;;;22.30;49.00;;;;;;4997572;28;20026;-84
2022/05/07 11:39:54;;;;;;;12.35;11.15;;;21.90;48.70;;;;;;4996981;28;20018;-84
2022/05/07 11:42:39;;;;;;;12.93;11.20;;;21.50;50.40;;;;;;4995195;28;20018;-84
2022/05/07 11:45:33;;;;;;;12.75;11.00;;;21.70;49.90;;;;;;4992588;28;20030;-84
2022/05/07 11:48:04;;;;;;;12.07;10.95;;;21.10;51.00;;;;;;4994507;28;20054;-84
2022/05/07 11:50:41;;;;;;;13.00;11.43;;;20.50;54.90;;;;;;4996752;28;20023;-84
2022/05/07 11:53:13;;;;;;;11.57;10.43;;;20.00;52.40;;;;;;4995973;28;20062;-84
2022/05/07 11:55:40;;;;;;;12.77;11.45;;;21.20;52.60;;;;;;4996986;28;20462;-85
2022/05/07 11:58:23;;;;;;;13.05;10.10;;;21.50;50.80;;;;;;4995655;28;20049;-85
2022/05/07 12:00:51;;;;;;;16.05;10.57;;;21.00;53.00;;;;;;4994459;28;20119;-85
2022/05/07 12:03:18;;;;;;;12.68;10.77;;;19.90;51.40;;;;;;4994891;28;20038;-85
2022/05/07 12:05:47;;;;;;;11.73;10.50;;;19.70;54.70;;;;;;4995569;28;20038;-85
2022/05/07 12:08:16;;;;;;;12.30;10.30;;;19.70;54.20;;;;;;4996769;28;20101;-85
2022/05/07 12:10:43;;;;;;;13.33;11.50;;;20.70;52.90;;;;;;4996911;28;20109;-85
2022/05/07 12:13:10;;;;;;;11.80;10.57;;;22.40;53.40;;;;;;4978797;28;20030;-85
2022/05/07 12:18:24;;;;;;;11.57;10.38;;;23.90;44.80;;;;;;4995942;28;20104;-85
2022/05/07 12:20:51;;;;;;;11.18;10.07;;;24.30;43.50;;;;;;4996647;28;20374;-84
2022/05/07 12:29:49;;;;;;;12.05;10.85;;;22.10;47.30;;;;;;4996731;28;20091;-85
2022/05/07 12:31:52;;;;;;;10.90;9.77;;;21.50;48.40;;;;;;4995744;28;20038;-85
2022/05/07 12:34:19;;;;;;;11.23;9.60;;;22.60;46.20;;;;;;4996416;28;20026;-85
2022/05/07 12:36:45;;;;;;;10.40;9.27;;;23.80;43.20;;;;;;4994760;28;20022;-85
2022/05/07 12:39:10;;;;;;;12.10;10.00;;;24.80;45.00;;;;;;4995913;28;20096;-85
2022/05/07 12:41:41;;;;;;;13.43;10.60;;;24.20;42.20;;;;;;4994858;28;20026;-85
2022/05/07 12:44:06;;;;;;;10.55;9.52;;;25.00;41.00;;;;;;4995690;28;20101;-85
2022/05/07 12:46:32;;;;;;;11.77;9.77;;;25.50;38.80;;;;;;5010650;28;20142;-85
2022/05/07 12:48:59;;;;;;;13.50;9.75;;;25.60;38.80;;;;;;4994526;28;20343;-85
2022/05/07 12:51:27;;;;;;;14.95;9.88;;;26.60;37.40;;;;;;4995960;28;20037;-85
2022/05/07 12:53:54;;;;;;;10.38;9.32;;;24.40;42.00;;;;;;4995177;28;20031;-85
2022/05/07 12:56:19;;;;;;;10.52;9.43;;;22.10;43.40;;;;;;4995331;28;20509;-84
2022/05/07 12:58:47;;;;;;;12.48;10.00;;;20.90;47.20;;;;;;4995500;28;20031;-85
2022/05/07 13:01:13;;;;;;;11.80;9.82;;;20.50;49.20;;;;;;4960847;28;20449;-85
2022/05/07 13:03:38;;;;;;;14.52;10.38;;;22.50;47.50;;;;;;5010435;28;20027;-85
2022/05/07 13:06:04;;;;;;;11.25;9.57;;;23.30;41.70;;;;;;4994379;28;20389;-85
2022/05/07 13:08:30;;;;;;;10.70;8.75;;;25.20;39.70;;;;;;4978048;28;20411;-85
2022/05/07 13:10:57;;;;;;;10.30;8.90;;;26.10;37.50;;;;;;4995366;28;20037;-85
2022/05/07 13:13:24;;;;;;;11.52;9.68;;;26.70;36.70;;;;;;4994019;28;20042;-85
2022/05/07 13:15:51;;;;;;;10.90;9.25;;;26.30;37.10;;;;;;4995049;28;20034;-85